Aérodrome :
LOGIN :

S'inscrire | Disclaimer

   EN    FR    IT 

 










Légende :    VFR   VFR Marginal   IFR   IFR Intensif   IFR Très Intensif
Visi : 
Plafond : 
>= 8 km
>= 3000ft
5 à 8 km
1000 à 3000 ft
1500m à 5 km
500 à 1000 ft
800 à 1500m
200 à 500 ft
< 800m
< 200 ft
Symboles :   Orages  Brouillard  Fortes neiges  Fortes précipitations  Vent > 20 kt
SIGMETs :   Divers  Orages  Givrage  Turbulence  Onde Orograph.  Cendres Volcan.






- Altitude de l'aérodrome : 1197 ft
- Code IATA : SPM


ETAD - Spangdahlem Ab

DERNIER METAR :
  • 172056Z AUTO 22012G21KT 9999 -RA BKN022 BKN028 OVC040 06/04 A3008 RMK AO2 RAB54 SLP187 P0000 60001 T00610036 53016 $

METARs EXPIRÉS :
  • 171956Z AUTO 22014KT 9999 OVC027 06/04 A3004 RMK AO2 SLP173 T00600040 $
  • 171911Z AUTO 23006KT 9999 BKN031 OVC040 05/04 A3004 RMK AO2 SLP175 $
  • 171856Z AUTO 23005KT 9999 BKN029 BKN036 05/04 A3003 RMK AO2 RAE05 CIG 029V045 SLP171 P0001 T00480036 $
  • 171820Z AUTO 22006KT 9999 FEW022 SCT034 04/03 A3003 RMK AO2 RAE05 SLP171 $
  • 171805Z AUTO 23007KT 9999 FEW023 SCT029 SCT037 BKN047 04/03 A3003 RMK AO2 RAE05 SLP171 $

TAF AMD TAF ETAD
Valide du 17 à 15h jusqu'au 18 à 19h UTC


171550Z 1715/1819 23010G15KT 9999 SCT025 BKN050 QNH2995INS
TEMPO 1717/1720 23012G25KT 8000 -TSRA BKN024CB
BECMG 1719/1720 24010G15KT 9999 BKN020 620359 QNH3000INS
TEMPO 1723/1805 8000 -RA BR BKN008 OVC016 TX08/1715Z TN04/1805Z



MET'MAP, la Météo Aéronautique d'un coup d'oeil ! - Copyright ORBIFLY Décembre 2007 - Disclaimer

ORBIFLY MET'MAP TEAM :

Programmation & Développement : Alexandra Zaïnal
Sur une idée originale de : Baudouin d'Aumeries
Assistance à la programmation : Marc-Olivier Méhu
Soutien technique & logistique : Manuel Goepfert

Contact : metmap@orbifly.com




SOURCES & CREDITS :

   NOAA